sensor_id;sensor_type;location;lat;lon;timestamp;pressure;altitude;pressure_sealevel;temperature;humidity
60974;BME280;46846;51.528;5.076;2023-01-30T00:00:13;101344.31;;;1.16;83.33
60974;BME280;46846;51.528;5.076;2023-01-30T00:02:38;101346.97;;;1.19;82.83
60974;BME280;46846;51.528;5.076;2023-01-30T00:05:04;101338.16;;;1.13;83.04
60974;BME280;46846;51.528;5.076;2023-01-30T00:07:29;101341.69;;;1.16;83.20
60974;BME280;46846;51.528;5.076;2023-01-30T00:09:55;101350.44;;;1.15;83.07
60974;BME280;46846;51.528;5.076;2023-01-30T00:12:20;101335.66;;;1.22;82.72
60974;BME280;46846;51.528;5.076;2023-01-30T00:14:45;101316.44;;;1.21;82.99
60974;BME280;46846;51.528;5.076;2023-01-30T00:17:11;101318.97;;;1.15;83.11
60974;BME280;46846;51.528;5.076;2023-01-30T00:19:36;101325.19;;;1.23;83.05
60974;BME280;46846;51.528;5.076;2023-01-30T00:22:01;101338.38;;;1.30;82.67
60974;BME280;46846;51.528;5.076;2023-01-30T00:24:27;101327.81;;;1.23;82.77
60974;BME280;46846;51.528;5.076;2023-01-30T00:26:52;101326.09;;;1.24;83.29
60974;BME280;46846;51.528;5.076;2023-01-30T00:29:17;101328.69;;;1.26;82.76
60974;BME280;46846;51.528;5.076;2023-01-30T00:31:43;101326.94;;;1.25;83.19
60974;BME280;46846;51.528;5.076;2023-01-30T00:34:11;101316.50;;;1.29;83.37
60974;BME280;46846;51.528;5.076;2023-01-30T00:36:36;101313.13;;;1.41;82.95
60974;BME280;46846;51.528;5.076;2023-01-30T00:39:02;101319.22;;;1.37;82.86
60974;BME280;46846;51.528;5.076;2023-01-30T00:41:27;101309.56;;;1.33;82.80
60974;BME280;46846;51.528;5.076;2023-01-30T00:44:12;101314.00;;;1.39;82.78
60974;BME280;46846;51.528;5.076;2023-01-30T00:46:56;101314.03;;;1.42;82.43
60974;BME280;46846;51.528;5.076;2023-01-30T00:49:32;101309.56;;;1.33;82.85
60974;BME280;46846;51.528;5.076;2023-01-30T00:51:58;101319.19;;;1.34;82.97
60974;BME280;46846;51.528;5.076;2023-01-30T00:54:23;101306.97;;;1.34;82.93
60974;BME280;46846;51.528;5.076;2023-01-30T00:56:51;101305.41;;;1.52;83.08
60974;BME280;46846;51.528;5.076;2023-01-30T00:59:16;101299.13;;;1.36;83.13
60974;BME280;46846;51.528;5.076;2023-01-30T01:01:42;101299.25;;;1.47;83.08
60974;BME280;46846;51.528;5.076;2023-01-30T01:04:07;101304.41;;;1.42;83.09
60974;BME280;46846;51.528;5.076;2023-01-30T01:06:35;101309.56;;;1.33;83.53
60974;BME280;46846;51.528;5.076;2023-01-30T01:09:00;101312.31;;;1.44;83.44
60974;BME280;46846;51.528;5.076;2023-01-30T01:11:26;101305.38;;;1.49;83.17
60974;BME280;46846;51.528;5.076;2023-01-30T01:13:56;101295.00;;;1.60;83.30
60974;BME280;46846;51.528;5.076;2023-01-30T01:16:23;101290.63;;;1.59;82.65
60974;BME280;46846;51.528;5.076;2023-01-30T01:18:49;101294.03;;;1.53;83.14
60974;BME280;46846;51.528;5.076;2023-01-30T01:21:15;101290.56;;;1.54;83.18
60974;BME280;46846;51.528;5.076;2023-01-30T01:23:40;101284.53;;;1.64;82.78
60974;BME280;46846;51.528;5.076;2023-01-30T01:26:06;101286.22;;;1.59;83.41
60974;BME280;46846;51.528;5.076;2023-01-30T01:28:31;101284.38;;;1.47;82.89
60974;BME280;46846;51.528;5.076;2023-01-30T01:30:57;101282.72;;;1.57;82.96
60974;BME280;46846;51.528;5.076;2023-01-30T01:33:26;101281.03;;;1.62;82.88
60974;BME280;46846;51.528;5.076;2023-01-30T01:35:55;101275.75;;;1.61;83.71
60974;BME280;46846;51.528;5.076;2023-01-30T01:38:21;101277.59;;;1.71;82.95
60974;BME280;46846;51.528;5.076;2023-01-30T01:40:46;101279.41;;;1.78;83.07
60974;BME280;46846;51.528;5.076;2023-01-30T01:43:29;101271.59;;;1.85;82.99
60974;BME280;46846;51.528;5.076;2023-01-30T01:45:59;101265.38;;;1.75;82.73
60974;BME280;46846;51.528;5.076;2023-01-30T01:48:40;101242.63;;;1.71;82.39
60974;BME280;46846;51.528;5.076;2023-01-30T01:51:21;101238.22;;;1.65;83.15
60974;BME280;46846;51.528;5.076;2023-01-30T01:54:19;101233.03;;;1.74;83.48
60974;BME280;46846;51.528;5.076;2023-01-30T01:56:44;101228.69;;;1.80;83.31
60974;BME280;46846;51.528;5.076;2023-01-30T01:59:34;101219.03;;;1.74;82.72
60974;BME280;46846;51.528;5.076;2023-01-30T02:02:06;101216.38;;;1.69;83.14
60974;BME280;46846;51.528;5.076;2023-01-30T02:04:35;101229.53;;;1.75;83.29
60974;BME280;46846;51.528;5.076;2023-01-30T02:07:20;101234.78;;;1.75;83.38
60974;BME280;46846;51.528;5.076;2023-01-30T02:09:47;101219.97;;;1.82;83.51
60974;BME280;46846;51.528;5.076;2023-01-30T02:12:14;101218.19;;;1.78;83.57
60974;BME280;46846;51.528;5.076;2023-01-30T02:14:40;101205.06;;;1.76;83.41
60974;BME280;46846;51.528;5.076;2023-01-30T02:17:06;101209.44;;;1.74;83.45
60974;BME280;46846;51.528;5.076;2023-01-30T02:19:53;101212.06;;;1.74;84.09
60974;BME280;46846;51.528;5.076;2023-01-30T02:22:40;101215.56;;;1.76;83.33
60974;BME280;46846;51.528;5.076;2023-01-30T02:25:37;101218.16;;;1.75;83.74
60974;BME280;46846;51.528;5.076;2023-01-30T02:31:16;101215.72;;;1.98;84.21
60974;BME280;46846;51.528;5.076;2023-01-30T02:33:56;101196.38;;;1.81;82.92
60974;BME280;46846;51.528;5.076;2023-01-30T02:39:07;101220.00;;;1.84;83.27
60974;BME280;46846;51.528;5.076;2023-01-30T02:44:52;101199.06;;;1.95;83.37
60974;BME280;46846;51.528;5.076;2023-01-30T02:47:35;101198.22;;;1.97;84.55
60974;BME280;46846;51.528;5.076;2023-01-30T02:50:11;101189.50;;;2.00;83.91
60974;BME280;46846;51.528;5.076;2023-01-30T02:52:39;101194.72;;;1.98;83.76
60974;BME280;46846;51.528;5.076;2023-01-30T02:55:15;101197.44;;;2.12;84.15
60974;BME280;46846;51.528;5.076;2023-01-30T02:57:41;101181.63;;;2.00;83.12
60974;BME280;46846;51.528;5.076;2023-01-30T03:00:07;101178.97;;;2.01;84.21
60974;BME280;46846;51.528;5.076;2023-01-30T03:11:03;101175.63;;;2.21;83.55
60974;BME280;46846;51.528;5.076;2023-01-30T03:13:54;101186.06;;;2.15;84.12
60974;BME280;46846;51.528;5.076;2023-01-30T03:16:37;101191.38;;;2.21;83.58
60974;BME280;46846;51.528;5.076;2023-01-30T03:19:04;101186.06;;;2.15;83.98
60974;BME280;46846;51.528;5.076;2023-01-30T03:21:31;101171.19;;;2.12;83.32
60974;BME280;46846;51.528;5.076;2023-01-30T03:23:57;101164.16;;;2.08;83.96
60974;BME280;46846;51.528;5.076;2023-01-30T03:26:31;101156.19;;;1.94;84.53
60974;BME280;46846;51.528;5.076;2023-01-30T03:28:57;101168.56;;;2.09;84.49
60974;BME280;46846;51.528;5.076;2023-01-30T03:31:23;101170.38;;;2.18;84.25
60974;BME280;46846;51.528;5.076;2023-01-30T03:33:48;101162.53;;;2.27;84.55
60974;BME280;46846;51.528;5.076;2023-01-30T03:36:14;101160.75;;;2.28;84.06
60974;BME280;46846;51.528;5.076;2023-01-30T03:38:39;101157.25;;;2.21;84.38
60974;BME280;46846;51.528;5.076;2023-01-30T03:41:04;101150.22;;;2.18;84.09
60974;BME280;46846;51.528;5.076;2023-01-30T03:43:30;101155.50;;;2.22;84.10
60974;BME280;46846;51.528;5.076;2023-01-30T03:45:55;101158.06;;;2.14;84.37
60974;BME280;46846;51.528;5.076;2023-01-30T03:48:21;101169.53;;;2.25;84.69
60974;BME280;46846;51.528;5.076;2023-01-30T03:50:46;101170.44;;;2.34;84.56
60974;BME280;46846;51.528;5.076;2023-01-30T03:53:12;101161.75;;;2.47;84.62
60974;BME280;46846;51.528;5.076;2023-01-30T03:55:37;101157.34;;;2.44;84.42
60974;BME280;46846;51.528;5.076;2023-01-30T03:58:03;101156.50;;;2.50;85.27
60974;BME280;46846;51.528;5.076;2023-01-30T04:00:29;101159.13;;;2.47;84.47
60974;BME280;46846;51.528;5.076;2023-01-30T04:02:54;101154.69;;;2.41;84.16
60974;BME280;46846;51.528;5.076;2023-01-30T04:05:21;101168.75;;;2.48;84.81
60974;BME280;46846;51.528;5.076;2023-01-30T04:07:47;101173.13;;;2.52;84.48
60974;BME280;46846;51.528;5.076;2023-01-30T04:10:12;101170.50;;;2.52;84.39
60974;BME280;46846;51.528;5.076;2023-01-30T04:12:40;101160.84;;;2.45;84.14
60974;BME280;46846;51.528;5.076;2023-01-30T04:15:07;101162.63;;;2.44;84.89
60974;BME280;46846;51.528;5.076;2023-01-30T04:17:33;101158.22;;;2.42;83.52
60974;BME280;46846;51.528;5.076;2023-01-30T04:19:58;101154.78;;;2.62;84.74
60974;BME280;46846;51.528;5.076;2023-01-30T04:22:23;101146.91;;;2.60;84.41
60974;BME280;46846;51.528;5.076;2023-01-30T04:24:49;101135.50;;;2.56;84.13
60974;BME280;46846;51.528;5.076;2023-01-30T04:27:14;101136.34;;;2.52;84.12
60974;BME280;46846;51.528;5.076;2023-01-30T04:29:39;101136.38;;;2.54;83.86
60974;BME280;46846;51.528;5.076;2023-01-30T04:32:06;101140.75;;;2.52;83.83
60974;BME280;46846;51.528;5.076;2023-01-30T04:34:32;101135.53;;;2.63;84.27
60974;BME280;46846;51.528;5.076;2023-01-30T04:36:57;101142.53;;;2.62;85.17
60974;BME280;46846;51.528;5.076;2023-01-30T04:39:23;101143.44;;;2.75;85.03
60974;BME280;46846;51.528;5.076;2023-01-30T04:41:49;101134.69;;;2.70;83.66
60974;BME280;46846;51.528;5.076;2023-01-30T04:44:14;101137.34;;;2.79;85.46
60974;BME280;46846;51.528;5.076;2023-01-30T04:46:39;101149.59;;;2.85;86.07
60974;BME280;46846;51.528;5.076;2023-01-30T04:49:05;101145.22;;;2.87;84.77
60974;BME280;46846;51.528;5.076;2023-01-30T04:51:30;101147.84;;;2.87;84.35
60974;BME280;46846;51.528;5.076;2023-01-30T04:53:56;101147.81;;;2.76;83.90
60974;BME280;46846;51.528;5.076;2023-01-30T04:56:21;101144.31;;;2.71;83.94
60974;BME280;46846;51.528;5.076;2023-01-30T04:58:46;101154.84;;;2.79;84.68
60974;BME280;46846;51.528;5.076;2023-01-30T05:03:52;101165.31;;;2.68;84.26
60974;BME280;46846;51.528;5.076;2023-01-30T05:06:18;101175.81;;;2.68;84.54
60974;BME280;46846;51.528;5.076;2023-01-30T05:08:47;101174.06;;;2.64;83.94
60974;BME280;46846;51.528;5.076;2023-01-30T05:11:12;101182.81;;;2.59;84.16
60974;BME280;46846;51.528;5.076;2023-01-30T05:13:37;101164.41;;;2.56;84.93
60974;BME280;46846;51.528;5.076;2023-01-30T05:16:03;101162.75;;;2.80;84.71
60974;BME280;46846;51.528;5.076;2023-01-30T05:18:29;101176.75;;;2.84;85.28
60974;BME280;46846;51.528;5.076;2023-01-30T05:21:11;101180.31;;;2.94;85.16
60974;BME280;46846;51.528;5.076;2023-01-30T05:23:37;101169.78;;;2.95;85.46
60974;BME280;46846;51.528;5.076;2023-01-30T05:26:03;101181.13;;;2.80;83.71
60974;BME280;46846;51.528;5.076;2023-01-30T05:28:28;101177.66;;;2.91;84.58
60974;BME280;46846;51.528;5.076;2023-01-30T05:31:20;101167.13;;;2.91;84.16
60974;BME280;46846;51.528;5.076;2023-01-30T05:33:49;101172.38;;;2.91;84.42
60974;BME280;46846;51.528;5.076;2023-01-30T05:36:17;101165.41;;;2.99;84.61
60974;BME280;46846;51.528;5.076;2023-01-30T05:38:44;101159.25;;;2.86;85.15
60974;BME280;46846;51.528;5.076;2023-01-30T05:41:09;101155.78;;;2.95;84.94
60974;BME280;46846;51.528;5.076;2023-01-30T05:43:35;101153.13;;;2.98;84.05
60974;BME280;46846;51.528;5.076;2023-01-30T05:46:02;101159.25;;;2.92;83.87
60974;BME280;46846;51.528;5.076;2023-01-30T05:48:28;101147.03;;;3.02;84.82
60974;BME280;46846;51.528;5.076;2023-01-30T05:50:55;101138.25;;;2.97;84.40
60974;BME280;46846;51.528;5.076;2023-01-30T05:53:23;101147.91;;;3.01;84.77
60974;BME280;46846;51.528;5.076;2023-01-30T05:56:03;101164.53;;;2.97;83.92
60974;BME280;46846;51.528;5.076;2023-01-30T05:58:29;101169.78;;;2.97;84.98
60974;BME280;46846;51.528;5.076;2023-01-30T06:00:59;101180.31;;;2.97;84.48
60974;BME280;46846;51.528;5.076;2023-01-30T06:03:24;101187.31;;;2.90;83.98
60974;BME280;46846;51.528;5.076;2023-01-30T06:05:50;101175.03;;;3.01;85.15
60974;BME280;46846;51.528;5.076;2023-01-30T06:08:15;101183.78;;;2.88;84.17
60974;BME280;46846;51.528;5.076;2023-01-30T06:10:40;101187.34;;;3.01;84.51
60974;BME280;46846;51.528;5.076;2023-01-30T06:13:06;101195.19;;;2.98;84.29
60974;BME280;46846;51.528;5.076;2023-01-30T06:15:31;101203.91;;;2.81;84.55
60974;BME280;46846;51.528;5.076;2023-01-30T06:17:57;101193.41;;;2.83;84.89
60974;BME280;46846;51.528;5.076;2023-01-30T06:20:25;101196.09;;;3.06;85.09
60974;BME280;46846;51.528;5.076;2023-01-30T06:22:50;101201.34;;;2.94;84.18
60974;BME280;46846;51.528;5.076;2023-01-30T06:25:16;101201.31;;;2.95;83.95
60974;BME280;46846;51.528;5.076;2023-01-30T06:27:41;101210.97;;;3.03;84.23
60974;BME280;46846;51.528;5.076;2023-01-30T06:30:08;101210.09;;;3.00;84.68
60974;BME280;46846;51.528;5.076;2023-01-30T06:32:33;101223.25;;;3.05;84.65
60974;BME280;46846;51.528;5.076;2023-01-30T06:34:59;101235.56;;;3.09;83.76
60974;BME280;46846;51.528;5.076;2023-01-30T06:37:24;101232.88;;;2.94;83.95
60974;BME280;46846;51.528;5.076;2023-01-30T06:39:49;101219.78;;;3.12;84.13
60974;BME280;46846;51.528;5.076;2023-01-30T06:42:15;101212.78;;;3.08;84.05
60974;BME280;46846;51.528;5.076;2023-01-30T06:44:40;101211.03;;;3.18;84.13
60974;BME280;46846;51.528;5.076;2023-01-30T06:47:05;101215.38;;;3.05;83.29
60974;BME280;46846;51.528;5.076;2023-01-30T06:49:31;101243.41;;;3.06;83.77
60974;BME280;46846;51.528;5.076;2023-01-30T06:51:56;101235.56;;;3.16;83.76
60974;BME280;46846;51.528;5.076;2023-01-30T06:54:21;101230.31;;;3.19;84.01
60974;BME280;46846;51.528;5.076;2023-01-30T06:56:47;101221.56;;;3.23;83.81
60974;BME280;46846;51.528;5.076;2023-01-30T06:59:12;101207.50;;;3.11;83.14
60974;BME280;46846;51.528;5.076;2023-01-30T07:01:38;101216.28;;;3.12;82.95
60974;BME280;46846;51.528;5.076;2023-01-30T07:04:04;101208.41;;;3.17;82.55
60974;BME280;46846;51.528;5.076;2023-01-30T07:06:29;101209.28;;;3.25;83.20
60974;BME280;46846;51.528;5.076;2023-01-30T07:08:54;101210.16;;;3.22;83.03
60974;BME280;46846;51.528;5.076;2023-01-30T07:11:24;101204.00;;;3.00;83.75
60974;BME280;46846;51.528;5.076;2023-01-30T07:13:49;101213.66;;;3.12;83.31
60974;BME280;46846;51.528;5.076;2023-01-30T07:16:14;101218.03;;;3.18;82.83
60974;BME280;46846;51.528;5.076;2023-01-30T07:18:40;101224.09;;;2.93;83.56
60974;BME280;46846;51.528;5.076;2023-01-30T07:21:05;101229.44;;;3.12;82.63
60974;BME280;46846;51.528;5.076;2023-01-30T07:23:30;101246.94;;;3.11;83.11
60974;BME280;46846;51.528;5.076;2023-01-30T07:25:56;101244.28;;;3.05;82.99
60974;BME280;46846;51.528;5.076;2023-01-30T07:28:21;101243.38;;;2.92;83.84
60974;BME280;46846;51.528;5.076;2023-01-30T07:30:47;101244.25;;;2.90;82.80
60974;BME280;46846;51.528;5.076;2023-01-30T07:33:16;101245.16;;;3.04;82.24
60974;BME280;46846;51.528;5.076;2023-01-30T07:35:42;101249.50;;;2.91;83.04
60974;BME280;46846;51.528;5.076;2023-01-30T07:38:07;101250.41;;;3.03;82.88
60974;BME280;46846;51.528;5.076;2023-01-30T07:40:33;101254.78;;;2.97;82.72
60974;BME280;46846;51.528;5.076;2023-01-30T07:43:00;101257.41;;;2.94;82.57
60974;BME280;46846;51.528;5.076;2023-01-30T07:45:29;101263.56;;;3.04;82.68
60974;BME280;46846;51.528;5.076;2023-01-30T07:47:55;101260.09;;;3.04;82.98
60974;BME280;46846;51.528;5.076;2023-01-30T07:50:20;101261.84;;;3.05;82.29
60974;BME280;46846;51.528;5.076;2023-01-30T07:52:46;101266.22;;;3.13;81.61
60974;BME280;46846;51.528;5.076;2023-01-30T07:55:11;101267.13;;;3.19;82.17
60974;BME280;46846;51.528;5.076;2023-01-30T07:57:37;101262.75;;;3.13;82.53
60974;BME280;46846;51.528;5.076;2023-01-30T08:00:03;101270.63;;;3.18;81.91
60974;BME280;46846;51.528;5.076;2023-01-30T08:02:29;101268.91;;;3.23;81.85
60974;BME280;46846;51.528;5.076;2023-01-30T08:04:54;101253.13;;;3.26;82.06
60974;BME280;46846;51.528;5.076;2023-01-30T08:07:20;101260.97;;;3.13;81.86
60974;BME280;46846;51.528;5.076;2023-01-30T08:09:45;101265.38;;;3.16;81.46
60974;BME280;46846;51.528;5.076;2023-01-30T08:12:10;101265.34;;;3.08;81.97
60974;BME280;46846;51.528;5.076;2023-01-30T08:14:36;101273.25;;;3.08;82.00
60974;BME280;46846;51.528;5.076;2023-01-30T08:17:01;101276.72;;;3.09;82.05
60974;BME280;46846;51.528;5.076;2023-01-30T08:19:26;101276.75;;;3.13;81.57
60974;BME280;46846;51.528;5.076;2023-01-30T08:21:52;101282.88;;;3.08;82.38
60974;BME280;46846;51.528;5.076;2023-01-30T08:24:17;101287.28;;;3.12;81.87
60974;BME280;46846;51.528;5.076;2023-01-30T08:26:42;101303.00;;;3.01;82.04
60974;BME280;46846;51.528;5.076;2023-01-30T08:29:08;101304.81;;;3.21;81.31
60974;BME280;46846;51.528;5.076;2023-01-30T08:31:33;101299.59;;;3.19;81.23
60974;BME280;46846;51.528;5.076;2023-01-30T08:33:58;101299.53;;;3.10;82.16
60974;BME280;46846;51.528;5.076;2023-01-30T08:36:24;101295.94;;;2.92;82.68
60974;BME280;46846;51.528;5.076;2023-01-30T08:38:50;101298.59;;;2.89;82.15
60974;BME280;46846;51.528;5.076;2023-01-30T08:41:15;101299.50;;;2.97;82.33
60974;BME280;46846;51.528;5.076;2023-01-30T08:43:41;101308.19;;;2.89;82.73
60974;BME280;46846;51.528;5.076;2023-01-30T08:46:06;101309.09;;;2.95;82.74
60974;BME280;46846;51.528;5.076;2023-01-30T08:48:31;101303.00;;;3.03;81.94
60974;BME280;46846;51.528;5.076;2023-01-30T08:50:57;101298.53;;;2.83;82.78
60974;BME280;46846;51.528;5.076;2023-01-30T08:53:23;101301.13;;;2.72;83.19
60974;BME280;46846;51.528;5.076;2023-01-30T08:55:49;101298.59;;;2.89;82.63
60974;BME280;46846;51.528;5.076;2023-01-30T08:58:19;101315.16;;;2.76;83.44
60974;BME280;46846;51.528;5.076;2023-01-30T09:00:45;101310.81;;;2.81;83.18
60974;BME280;46846;51.528;5.076;2023-01-30T09:03:12;101332.66;;;2.77;83.06
60974;BME280;46846;51.528;5.076;2023-01-30T09:05:37;101331.75;;;2.71;83.51
60974;BME280;46846;51.528;5.076;2023-01-30T09:08:05;101321.31;;;2.79;83.34
60974;BME280;46846;51.528;5.076;2023-01-30T09:10:31;101329.19;;;2.79;83.17
60974;BME280;46846;51.528;5.076;2023-01-30T09:12:56;101322.16;;;2.80;83.30
60974;BME280;46846;51.528;5.076;2023-01-30T09:15:22;101329.22;;;2.87;82.91
60974;BME280;46846;51.528;5.076;2023-01-30T09:17:47;101326.59;;;2.85;82.96
60974;BME280;46846;51.528;5.076;2023-01-30T09:20:13;101338.81;;;2.80;82.81
60974;BME280;46846;51.528;5.076;2023-01-30T09:22:38;101345.81;;;2.73;83.68
60974;BME280;46846;51.528;5.076;2023-01-30T09:25:05;101345.84;;;2.83;83.19
60974;BME280;46846;51.528;5.076;2023-01-30T09:27:31;101350.22;;;2.79;83.20
60974;BME280;46846;51.528;5.076;2023-01-30T09:29:56;101361.59;;;2.84;82.53
60974;BME280;46846;51.528;5.076;2023-01-30T09:32:22;101358.94;;;2.75;83.21
60974;BME280;46846;51.528;5.076;2023-01-30T09:34:47;101358.09;;;2.79;82.77
60974;BME280;46846;51.528;5.076;2023-01-30T09:37:13;101362.47;;;2.80;82.59
60974;BME280;46846;51.528;5.076;2023-01-30T09:39:38;101359.00;;;2.86;82.85
60974;BME280;46846;51.528;5.076;2023-01-30T09:50:38;101388.72;;;2.76;82.49
60974;BME280;46846;51.528;5.076;2023-01-30T09:53:19;101359.88;;;2.85;82.92
60974;BME280;46846;51.528;5.076;2023-01-30T09:55:47;101377.28;;;2.69;83.76
60974;BME280;46846;51.528;5.076;2023-01-30T09:58:18;101369.44;;;2.72;83.14
60974;BME280;46846;51.528;5.076;2023-01-30T10:00:44;101386.94;;;2.71;83.36
60974;BME280;46846;51.528;5.076;2023-01-30T10:25:14;101419.53;;;2.97;82.41
60974;BME280;46846;51.528;5.076;2023-01-30T10:28:10;101414.25;;;2.95;82.30
60974;BME280;46846;51.528;5.076;2023-01-30T10:30:33;101415.06;;;2.82;83.68
60974;BME280;46846;51.528;5.076;2023-01-30T10:33:06;101416.88;;;2.95;82.39
60974;BME280;46846;51.528;5.076;2023-01-30T10:35:38;101418.53;;;2.78;83.18
60974;BME280;46846;51.528;5.076;2023-01-30T10:38:10;101405.47;;;2.89;83.02
60974;BME280;46846;51.528;5.076;2023-01-30T10:40:45;101431.75;;;2.89;83.02
60974;BME280;46846;51.528;5.076;2023-01-30T10:43:24;101428.25;;;2.90;83.54
60974;BME280;46846;51.528;5.076;2023-01-30T10:51:32;101445.81;;;2.97;82.82
60974;BME280;46846;51.528;5.076;2023-01-30T10:54:27;101435.34;;;3.00;82.96
60974;BME280;46846;51.528;5.076;2023-01-30T11:02:31;101443.97;;;2.80;83.58
60974;BME280;46846;51.528;5.076;2023-01-30T11:05:03;101429.13;;;2.90;83.26
60974;BME280;46846;51.528;5.076;2023-01-30T11:07:34;101429.16;;;2.98;83.25
60974;BME280;46846;51.528;5.076;2023-01-30T11:09:59;101430.03;;;2.94;83.27
60974;BME280;46846;51.528;5.076;2023-01-30T11:12:25;101440.59;;;2.98;83.17
60974;BME280;46846;51.528;5.076;2023-01-30T11:14:52;101432.75;;;3.05;82.62
60974;BME280;46846;51.528;5.076;2023-01-30T11:17:19;101431.84;;;3.04;83.05
60974;BME280;46846;51.528;5.076;2023-01-30T11:19:53;101426.66;;;3.15;81.86
60974;BME280;46846;51.528;5.076;2023-01-30T11:22:19;101445.03;;;3.10;82.40
60974;BME280;46846;51.528;5.076;2023-01-30T11:24:45;101429.28;;;3.15;82.46
60974;BME280;46846;51.528;5.076;2023-01-30T11:27:16;101431.94;;;3.17;82.80
60974;BME280;46846;51.528;5.076;2023-01-30T11:29:42;101431.00;;;3.07;83.10
60974;BME280;46846;51.528;5.076;2023-01-30T11:32:14;101444.16;;;3.11;83.15
60974;BME280;46846;51.528;5.076;2023-01-30T11:35:10;101441.53;;;3.11;82.58
60974;BME280;46846;51.528;5.076;2023-01-30T11:37:43;101426.63;;;3.13;82.13
60974;BME280;46846;51.528;5.076;2023-01-30T11:42:50;101454.69;;;3.08;82.57
60974;BME280;46846;51.528;5.076;2023-01-30T11:45:20;101446.00;;;3.25;81.85
60974;BME280;46846;51.528;5.076;2023-01-30T11:47:59;101448.63;;;3.23;82.87
60974;BME280;46846;51.528;5.076;2023-01-30T11:50:33;101449.53;;;3.28;82.49
60974;BME280;46846;51.528;5.076;2023-01-30T11:53:04;101454.75;;;3.22;82.34
60974;BME280;46846;51.528;5.076;2023-01-30T11:55:36;101460.00;;;3.21;82.50
60974;BME280;46846;51.528;5.076;2023-01-30T11:58:07;101443.34;;;3.19;82.38
60974;BME280;46846;51.528;5.076;2023-01-30T12:00:41;101462.69;;;3.28;82.01
60974;BME280;46846;51.528;5.076;2023-01-30T12:03:12;101444.28;;;3.30;82.30
60974;BME280;46846;51.528;5.076;2023-01-30T12:05:39;101446.91;;;3.33;81.99
60974;BME280;46846;51.528;5.076;2023-01-30T12:08:23;101444.22;;;3.25;82.47
60974;BME280;46846;51.528;5.076;2023-01-30T12:10:55;101453.03;;;3.26;82.54
60974;BME280;46846;51.528;5.076;2023-01-30T12:13:24;101434.69;;;3.43;81.41
60974;BME280;46846;51.528;5.076;2023-01-30T12:16:03;101446.03;;;3.34;82.00
60974;BME280;46846;51.528;5.076;2023-01-30T12:18:38;101451.31;;;3.36;82.37
60974;BME280;46846;51.528;5.076;2023-01-30T12:21:27;101450.50;;;3.48;81.15
60974;BME280;46846;51.528;5.076;2023-01-30T12:24:07;101435.53;;;3.39;82.86
60974;BME280;46846;51.528;5.076;2023-01-30T12:26:41;101441.72;;;3.49;81.67
60974;BME280;46846;51.528;5.076;2023-01-30T12:29:26;101444.44;;;3.61;79.83
60974;BME280;46846;51.528;5.076;2023-01-30T12:34:31;101443.56;;;3.64;81.18
60974;BME280;46846;51.528;5.076;2023-01-30T12:37:07;101455.88;;;3.69;80.55
60974;BME280;46846;51.528;5.076;2023-01-30T12:42:45;101462.00;;;3.72;81.08
60974;BME280;46846;51.528;5.076;2023-01-30T12:45:24;101457.66;;;3.77;80.56
60974;BME280;46846;51.528;5.076;2023-01-30T12:48:04;101468.97;;;3.62;81.38
60974;BME280;46846;51.528;5.076;2023-01-30T12:51:00;101471.69;;;3.71;81.25
60974;BME280;46846;51.528;5.076;2023-01-30T12:53:54;101470.84;;;3.81;79.81
60974;BME280;46846;51.528;5.076;2023-01-30T13:01:26;101464.63;;;3.67;81.64
60974;BME280;46846;51.528;5.076;2023-01-30T13:09:35;101476.00;;;3.64;82.10
60974;BME280;46846;51.528;5.076;2023-01-30T13:12:25;101484.88;;;3.82;80.79
60974;BME280;46846;51.528;5.076;2023-01-30T13:22:47;101491.88;;;3.77;80.30
60974;BME280;46846;51.528;5.076;2023-01-30T13:25:40;101491.84;;;3.74;81.67
60974;BME280;46846;51.528;5.076;2023-01-30T13:28:13;101492.66;;;3.62;81.89
60974;BME280;46846;51.528;5.076;2023-01-30T13:30:41;101493.59;;;3.72;82.22
60974;BME280;46846;51.528;5.076;2023-01-30T13:33:29;101509.44;;;3.82;81.46
60974;BME280;46846;51.528;5.076;2023-01-30T13:36:14;101509.34;;;3.62;82.57
60974;BME280;46846;51.528;5.076;2023-01-30T13:41:14;101511.16;;;3.77;82.53
60974;BME280;46846;51.528;5.076;2023-01-30T13:43:49;101512.97;;;3.83;82.33
60974;BME280;46846;51.528;5.076;2023-01-30T13:46:26;101505.91;;;3.79;82.03
60974;BME280;46846;51.528;5.076;2023-01-30T13:49:05;101512.94;;;3.80;82.09
60974;BME280;46846;51.528;5.076;2023-01-30T14:00:19;101519.94;;;3.75;81.79
60974;BME280;46846;51.528;5.076;2023-01-30T14:03:24;101527.03;;;3.87;81.57
60974;BME280;46846;51.528;5.076;2023-01-30T14:08:46;101546.34;;;3.93;81.60
60974;BME280;46846;51.528;5.076;2023-01-30T14:11:35;101549.88;;;3.89;81.27
60974;BME280;46846;51.528;5.076;2023-01-30T14:14:19;101557.75;;;3.92;82.18
60974;BME280;46846;51.528;5.076;2023-01-30T14:16:52;101557.78;;;4.00;81.23
60974;BME280;46846;51.528;5.076;2023-01-30T14:22:00;101562.22;;;4.09;81.19
60974;BME280;46846;51.528;5.076;2023-01-30T14:24:27;101564.84;;;4.07;81.40
60974;BME280;46846;51.528;5.076;2023-01-30T14:27:02;101570.97;;;4.03;81.55
60974;BME280;46846;51.528;5.076;2023-01-30T14:40:34;101598.22;;;4.15;81.13
60974;BME280;46846;51.528;5.076;2023-01-30T14:45:57;101606.94;;;3.95;82.01
60974;BME280;46846;51.528;5.076;2023-01-30T14:51:34;101617.53;;;4.10;81.70
60974;BME280;46846;51.528;5.076;2023-01-30T14:59:32;101638.69;;;4.26;80.77
60974;BME280;46846;51.528;5.076;2023-01-30T15:05:03;101643.09;;;4.29;81.25
60974;BME280;46846;51.528;5.076;2023-01-30T15:07:39;101658.00;;;4.20;81.27
60974;BME280;46846;51.528;5.076;2023-01-30T15:10:46;101658.88;;;4.22;81.55
60974;BME280;46846;51.528;5.076;2023-01-30T15:13:41;101667.66;;;4.21;81.79
60974;BME280;46846;51.528;5.076;2023-01-30T15:21:51;101675.56;;;4.24;81.46
60974;BME280;46846;51.528;5.076;2023-01-30T15:27:32;101682.59;;;4.24;81.43
60974;BME280;46846;51.528;5.076;2023-01-30T15:32:29;101683.47;;;4.26;81.39
60974;BME280;46846;51.528;5.076;2023-01-30T15:37:50;101694.91;;;4.30;81.58